الصفحة الرئيسية
METAR-TAF:

METAR-TAF

مطار :

نيامي, النيجر

مطار ديوري حماني

دائرة عرض: 13-29N, خط طول: 002-10E, ارتفاع: 223 متر

مراقبة الطقس الحالي

تاريخ ووقت الإصدار 58 دقيقة قبل الساعة 18:00UTC
ريح 3 عقدةمن اتجاهات متغيرة
درجة الحرارة 35°درجة مئوية
الرطوبة 28%
ضغط 1005 hPa
الرؤية: 6000 متر
غيوم قليلة على ارتفاع 4000 قدم, مزن ركامية عمودية.

METAR: DRRN 221800Z VRB03KT 6000 FEW040TCU 35/14 Q1005 TEMPO 4000 DU

زمن: 19:58 (18:58 UTC)

توقعات

تاريخ ووقت الإصدار 1ساعة و 58 دقيقة قبل الساعة 17:00UTC
التوقعات صالحة من22 الساعة 18 UTC إلى 23 الساعة 24 UTC
ريح 6 عقدة من الشمال الغربي
الرؤية: 8000 متر
نظرية الاحتمالات 40% :
مؤقت
من 22 الساعة 18 UTC إلى 22 الساعة 21 UTC
ريح 20 عقدة من الجنوب الغربي تتزايد حتى 30 عقدة
الرؤية: 1000 متر
غيوم قليلة على ارتفاع 4000 قدم, مزنة ركامية.
هبوب الغبار, عاصفة رعدية
مؤقت
من 23 الساعة 06 UTC إلى 23 الساعة 12 UTC
ريح 10 عقدة من الجنوب

TAF: DRRN 221700Z 2218/2324 32006KT 8000 NSC PROB40 TEMPO 2218/2221 VRB35KT 22020G30KT 1000 BLDU TS FEW040CB TEMPO 2306/2312 19010KT

أرصاد الطقس والتوقعات من أكثر من 4000 مطار (تقارير الطقس للمطار METAR والتنبؤ بالطقس بالمطارTAF).

المحطات المتاحة هي النقط الصفراء والحمراء على الخريطة.

حرك المؤشر فوق النقطة لمعرفة اسم المحطة.

ثم انقر لمعرفة أرصاد وتوقعات الطقس.

لتغيير الخارطة: اضغط على الأزرار الخضراء مع رمز الصليب الأسود للتكبير. على الزر الأخضر مع شرطة للتصغير، أو على الأسهم الخضراء للخرائط المجاورة.


METAR-TAF: